Time;durP1;ratioP1;P1;durP2;ratioP2;P2;SDS_P1;SDS_P2;PMS_P1;PMS_P2;Temp;Humidity;BMP_temperature;BMP_pressure;BME280_temperature;BME280_humidity;BME280_pressure;Samples;Min_cycle;Max_cycle;Signal;HPM_P1;HPM_P2
2022/01/12 00:00:18;;;;;;;157.38;11.63;;;;;;;-4.10;100.00;101321.75;4987747;28;20469;-60
2022/01/12 00:02:43;;;;;;;125.25;9.68;;;;;;;-4.22;100.00;101307.66;4990505;28;20032;-60
2022/01/12 00:05:09;;;;;;;122.70;10.30;;;;;;;-4.27;100.00;101294.84;4995727;28;20680;-60
2022/01/12 00:07:34;;;;;;;147.00;11.18;;;;;;;-4.28;100.00;101293.16;4990750;28;20069;-60
2022/01/12 00:10:00;;;;;;;146.57;11.27;;;;;;;-4.33;100.00;101290.00;4975538;28;20197;-60
2022/01/12 00:12:26;;;;;;;129.30;10.23;;;;;;;-4.28;100.00;101293.16;4987437;28;20064;-60
2022/01/12 00:14:52;;;;;;;147.55;10.43;;;;;;;-4.34;100.00;101301.41;4987965;28;20392;-60
2022/01/12 00:17:17;;;;;;;7.65;3.83;;;;;;;-4.37;100.00;101299.81;4993893;28;20457;-60
2022/01/12 00:19:43;;;;;;;134.35;10.80;;;;;;;-4.52;100.00;101294.69;4993129;28;20064;-60
2022/01/12 00:22:08;;;;;;;216.85;10.45;;;;;;;-4.56;100.00;101289.66;4983105;28;20045;-60
2022/01/12 00:33:11;;;;;;;57.00;8.00;;;;;;;-4.48;100.00;101277.88;4996516;28;20040;-60
2022/01/12 00:35:47;;;;;;;57.00;7.25;;;;;;;-4.47;100.00;101282.16;4989648;28;20878;-60
2022/01/12 00:38:13;;;;;;;33.45;7.85;;;;;;;-4.48;100.00;101293.56;4991681;28;20033;-60
2022/01/12 00:40:40;;;;;;;56.17;7.88;;;;;;;-4.37;100.00;101291.97;4988485;28;20046;-60
2022/01/12 00:43:05;;;;;;;87.05;8.48;;;;;;;-4.43;100.00;101294.13;4993409;28;20041;-60
2022/01/12 00:45:37;;;;;;;117.57;9.60;;;;;;;-4.39;100.00;101295.63;4990720;28;20046;-60
2022/01/12 00:48:04;;;;;;;69.93;9.38;;;;;;;-4.37;100.00;101298.97;4992039;28;20038;-60
2022/01/12 00:50:30;;;;;;;67.15;9.55;;;;;;;-4.44;100.00;101321.22;4993240;28;20073;-60
2022/01/12 00:52:55;;;;;;;66.78;9.68;;;;;;;-4.57;100.00;101311.53;4992713;28;20061;-60
2022/01/12 00:55:21;;;;;;;38.05;8.75;;;;;;;-4.43;100.00;101328.16;4997352;28;20499;-60
2022/01/12 00:57:47;;;;;;;45.38;9.38;;;;;;;-4.50;100.00;101325.06;4997022;28;20038;-60
2022/01/12 01:00:12;;;;;;;45.28;9.35;;;;;;;-4.41;100.00;101321.06;4998079;28;20294;-60
2022/01/12 01:02:38;;;;;;;41.42;8.25;;;;;;;-4.36;100.00;101332.09;4991029;28;20029;-60
2022/01/12 01:05:04;;;;;;;32.47;9.07;;;;;;;-4.38;100.00;101326.09;5026708;28;20342;-60
2022/01/12 01:07:29;;;;;;;31.40;8.82;;;;;;;-4.34;100.00;101324.97;4995640;28;20508;-61
2022/01/12 01:10:03;;;;;;;83.20;9.48;;;;;;;-4.37;100.00;101322.53;4993219;28;20038;-60
2022/01/12 01:12:29;;;;;;;36.13;9.27;;;;;;;-4.27;100.00;101323.63;4995003;28;20054;-60
2022/01/12 01:25:45;;;;;;;34.95;9.15;;;;;;;-4.17;100.00;101332.63;4971546;28;20397;-61
2022/01/12 01:28:10;;;;;;;26.05;8.40;;;;;;;-4.14;100.00;101329.81;4986839;28;20042;-60
2022/01/12 01:30:37;;;;;;;29.67;8.65;;;;;;;-4.19;100.00;101337.13;4972069;28;20064;-60
2022/01/12 01:33:04;;;;;;;35.40;8.85;;;;;;;-3.91;100.00;101343.25;4971878;28;20050;-61
2022/01/12 01:35:31;;;;;;;53.00;8.45;;;;;;;-4.01;100.00;101347.38;4971600;28;20034;-60
2022/01/12 01:37:59;;;;;;;26.60;8.52;;;;;;;-4.20;100.00;101340.66;4971530;28;20182;-60
2022/01/12 01:40:25;;;;;;;33.55;8.65;;;;;;;-4.20;100.00;101350.28;4974300;28;20065;-60
2022/01/12 01:53:37;;;;;;;21.73;7.93;;;;;;;-4.39;100.00;101327.03;4984388;28;20096;-60
2022/01/12 01:56:03;;;;;;;28.08;8.27;;;;;;;-4.30;100.00;101326.44;4977963;28;20283;-60
2022/01/12 01:58:28;;;;;;;27.02;9.27;;;;;;;-4.41;100.00;101321.06;4969989;28;20536;-60
2022/01/12 02:00:54;;;;;;;26.20;9.45;;;;;;;-4.30;100.00;101321.22;4972129;28;20039;-60
2022/01/12 02:03:19;;;;;;;55.92;7.55;;;;;;;-4.62;100.00;101331.91;4973524;28;20375;-60
2022/01/12 02:05:45;;;;;;;60.40;8.40;;;;;;;-4.54;100.00;101334.06;4970661;28;20042;-61
2022/01/12 02:08:10;;;;;;;47.30;8.68;;;;;;;-4.72;100.00;101336.00;4969832;28;20054;-60
2022/01/12 02:10:35;;;;;;;44.10;6.97;;;;;;;-4.53;100.00;101330.50;4966478;28;20137;-60
2022/01/12 02:13:01;;;;;;;59.88;8.90;;;;;;;-4.62;100.00;101337.13;4972896;28;20034;-60
2022/01/12 02:15:27;;;;;;;50.13;8.52;;;;;;;-4.51;100.00;101351.34;4968709;28;20038;-60
2022/01/12 02:18:09;;;;;;;66.47;7.88;;;;;;;-4.50;100.00;101351.22;4971999;28;20123;-60
2022/01/12 02:40:18;;;;;;;17.92;6.60;;;;;;;-4.56;100.00;101339.38;4972924;28;20037;-60
2022/01/12 02:42:47;;;;;;;28.05;9.02;;;;;;;-4.42;100.00;101343.78;4975415;28;20026;-60
2022/01/12 02:53:40;;;;;;;18.52;8.18;;;;;;;-4.14;100.00;101356.00;4982152;28;20132;-61
2022/01/12 02:56:20;;;;;;;17.45;8.63;;;;;;;-3.99;100.00;101366.47;4981363;28;20035;-60
2022/01/12 02:58:47;;;;;;;22.58;10.13;;;;;;;-3.95;100.00;101370.56;4983422;28;20050;-60
2022/01/12 03:03:44;;;;;;;20.83;9.02;;;;;;;-4.00;100.00;101370.84;4982331;28;20035;-60
2022/01/12 03:06:10;;;;;;;21.42;9.45;;;;;;;-4.06;100.00;101375.63;4978413;28;20492;-61
2022/01/12 03:08:39;;;;;;;21.58;8.82;;;;;;;-4.06;100.00;101380.88;4980581;28;20034;-60
2022/01/12 03:11:06;;;;;;;16.95;8.85;;;;;;;-4.07;100.00;101364.28;4969159;28;20412;-61
2022/01/12 03:13:31;;;;;;;16.80;8.48;;;;;;;-4.10;100.00;101372.34;4997451;28;20125;-61
2022/01/12 03:15:58;;;;;;;19.13;8.48;;;;;;;-4.09;100.00;101376.66;4998026;28;20501;-60
2022/01/12 03:18:23;;;;;;;18.73;9.02;;;;;;;-4.13;100.00;101383.84;4997891;28;20033;-61
2022/01/12 03:20:49;;;;;;;16.30;8.48;;;;;;;-3.99;100.00;101387.41;5005523;28;20672;-60
2022/01/12 03:23:15;;;;;;;20.73;9.55;;;;;;;-4.01;100.00;101389.28;4999272;28;20628;-61
2022/01/12 03:25:41;;;;;;;18.92;9.02;;;;;;;-4.00;100.00;101385.72;4998589;28;20104;-61
2022/01/12 03:28:07;;;;;;;15.95;8.40;;;;;;;-4.14;100.00;101383.97;4999752;28;20381;-60
2022/01/12 03:30:52;;;;;;;18.00;8.77;;;;;;;-4.07;100.00;101390.50;5001880;28;20347;-61
2022/01/12 03:33:54;;;;;;;16.50;8.35;;;;;;;-3.95;100.00;101394.13;4999723;28;20038;-61
2022/01/12 03:36:27;;;;;;;14.88;7.95;;;;;;;-4.13;100.00;101389.09;4994890;28;20120;-61
2022/01/12 03:39:03;;;;;;;21.27;9.32;;;;;;;-4.27;100.00;101389.09;5001180;28;20033;-61
2022/01/12 03:41:30;;;;;;;18.38;9.13;;;;;;;-4.32;100.00;101385.91;4989981;28;20070;-61
2022/01/12 03:43:56;;;;;;;17.30;7.45;;;;;;;-4.10;100.00;101379.38;5009507;28;20036;-60
2022/01/12 03:46:25;;;;;;;20.88;9.77;;;;;;;-4.16;100.00;101373.59;4999508;28;20050;-61
2022/01/12 03:48:50;;;;;;;20.88;9.45;;;;;;;-4.22;100.00;101366.13;5001010;28;20138;-61
2022/01/12 03:51:15;;;;;;;16.98;8.20;;;;;;;-4.12;100.00;101355.88;5001923;28;20042;-61
2022/01/12 03:53:41;;;;;;;24.05;10.57;;;;;;;-4.22;100.00;101342.56;4999166;28;20018;-60
2022/01/12 03:56:06;;;;;;;24.70;11.43;;;;;;;-4.16;100.00;101355.25;5000890;28;20049;-60
2022/01/12 03:58:32;;;;;;;23.38;9.32;;;;;;;-4.16;100.00;101354.41;4996569;28;20022;-59
2022/01/12 04:00:57;;;;;;;20.52;9.60;;;;;;;-4.25;100.00;101358.44;4989140;28;20837;-60
2022/01/12 04:03:25;;;;;;;21.02;9.70;;;;;;;-4.31;100.00;101369.28;4991988;28;20027;-59
2022/01/12 04:08:34;;;;;;;20.40;8.95;;;;;;;-4.35;100.00;101365.16;4964061;28;20545;-59
2022/01/12 04:11:00;;;;;;;18.77;9.40;;;;;;;-4.29;100.00;101359.56;4963578;28;20050;-60
2022/01/12 04:13:28;;;;;;;18.80;7.90;;;;;;;-4.34;100.00;101348.53;4965184;28;20026;-59
2022/01/12 04:16:04;;;;;;;24.95;10.23;;;;;;;-4.36;100.00;101359.09;4968916;28;20069;-60
2022/01/12 04:18:29;;;;;;;24.50;9.70;;;;;;;-4.41;100.00;101349.84;4963420;28;20034;-59
2022/01/12 04:20:57;;;;;;;19.73;9.07;;;;;;;-4.37;100.00;101354.81;4975621;28;20253;-60
2022/01/12 04:23:22;;;;;;;18.90;8.82;;;;;;;-4.26;100.00;101340.22;4988456;28;20037;-59
2022/01/12 04:25:57;;;;;;;22.83;10.07;;;;;;;-4.24;100.00;101339.19;4994221;28;20042;-61
2022/01/12 04:28:23;;;;;;;19.35;9.15;;;;;;;-4.17;100.00;101350.97;4985402;28;20369;-61
2022/01/12 04:30:51;;;;;;;20.55;9.48;;;;;;;-4.12;100.00;101353.28;4990825;28;20621;-59
2022/01/12 04:33:17;;;;;;;22.30;10.00;;;;;;;-4.07;100.00;101364.28;4990194;28;20061;-59
2022/01/12 04:35:48;;;;;;;21.58;9.65;;;;;;;-4.08;100.00;101372.28;4988804;28;20046;-59
2022/01/12 04:38:14;;;;;;;19.58;8.98;;;;;;;-4.08;100.00;101373.09;4994179;28;20409;-59
2022/01/12 04:40:40;;;;;;;19.05;8.88;;;;;;;-4.05;100.00;101372.91;4993223;28;20045;-59
2022/01/12 04:43:07;;;;;;;18.40;9.07;;;;;;;-4.00;100.00;101368.22;4986063;28;20165;-59
2022/01/12 04:48:09;;;;;;;21.52;9.77;;;;;;;-3.99;100.00;101361.22;4992523;28;20859;-59
2022/01/12 04:50:37;;;;;;;19.30;8.90;;;;;;;-4.10;100.00;101351.41;4981726;28;20050;-58
2022/01/12 04:53:04;;;;;;;18.65;8.65;;;;;;;-4.08;100.00;101351.31;4990352;28;20549;-61
2022/01/12 04:55:29;;;;;;;18.08;8.25;;;;;;;-4.10;100.00;101355.81;4987005;28;20081;-61
2022/01/12 04:57:54;;;;;;;21.00;9.45;;;;;;;-4.07;100.00;101353.81;4984997;28;20384;-60
2022/01/12 05:00:25;;;;;;;20.88;9.57;;;;;;;-4.01;100.00;101360.47;4978696;28;20547;-60
2022/01/12 05:13:41;;;;;;;19.48;8.63;;;;;;;-4.12;100.00;101341.03;4991828;28;20053;-59
2022/01/12 05:16:10;;;;;;;20.70;8.98;;;;;;;-4.08;100.00;101332.97;4976873;28;20046;-60
2022/01/12 05:18:35;;;;;;;17.75;8.50;;;;;;;-4.02;100.00;101324.72;4983956;28;20476;-60
2022/01/12 05:21:01;;;;;;;20.77;9.32;;;;;;;-3.95;100.00;101323.41;4986884;28;20049;-61
2022/01/12 05:23:26;;;;;;;24.33;10.27;;;;;;;-3.95;100.00;101333.88;4988012;28;20049;-59
2022/01/12 05:25:52;;;;;;;22.42;9.82;;;;;;;-4.02;100.00;101340.44;4981463;28;20053;-61
2022/01/12 05:28:21;;;;;;;23.33;10.18;;;;;;;-4.06;100.00;101333.72;4985129;28;20073;-61
2022/01/12 05:30:47;;;;;;;24.40;10.43;;;;;;;-4.08;100.00;101315.47;4988922;28;20050;-60
2022/01/12 05:33:13;;;;;;;19.98;9.85;;;;;;;-4.04;100.00;101318.72;4989187;28;20074;-60
2022/01/12 05:35:38;;;;;;;20.38;9.20;;;;;;;-3.98;100.00;101334.06;4987256;28;20599;-61
2022/01/12 05:38:04;;;;;;;21.13;9.23;;;;;;;-3.92;100.00;101328.44;4992620;28;20038;-60
2022/01/12 05:40:30;;;;;;;44.60;17.63;;;;;;;-3.89;100.00;101330.88;4976109;28;20086;-60
2022/01/12 05:42:58;;;;;;;52.50;23.95;;;;;;;-3.94;100.00;101352.13;4942407;28;20122;-59
2022/01/12 05:45:24;;;;;;;22.08;11.70;;;;;;;-3.78;100.00;101352.00;4964152;28;20046;-60
2022/01/12 05:50:15;;;;;;;22.80;10.75;;;;;;;-3.91;100.00;101374.69;4963398;28;20703;-60
2022/01/12 05:52:41;;;;;;;21.98;9.43;;;;;;;-3.87;100.00;101381.38;4983996;28;20402;-60
2022/01/12 05:55:07;;;;;;;18.00;8.93;;;;;;;-3.78;100.00;101391.28;4994812;28;20448;-61
2022/01/12 05:57:32;;;;;;;22.15;10.80;;;;;;;-3.86;100.00;101393.56;4986920;28;20076;-59
2022/01/12 05:59:58;;;;;;;19.48;9.32;;;;;;;-4.08;100.00;101377.50;4982773;28;20038;-59
2022/01/12 06:02:24;;;;;;;22.30;10.45;;;;;;;-4.15;100.00;101383.09;4986839;28;20198;-59
2022/01/12 06:04:49;;;;;;;26.08;10.70;;;;;;;-4.05;100.00;101395.66;4992441;28;20041;-59
2022/01/12 06:07:15;;;;;;;23.58;10.80;;;;;;;-4.02;100.00;101400.69;4963792;28;20512;-59
2022/01/12 06:09:40;;;;;;;26.40;11.40;;;;;;;-4.02;100.00;101412.03;4961998;28;20031;-60
2022/01/12 06:12:06;;;;;;;22.73;10.80;;;;;;;-4.01;100.00;101399.78;4979901;28;20039;-61
2022/01/12 06:14:32;;;;;;;24.05;9.55;;;;;;;-3.87;100.00;101384.00;4978154;28;20432;-61
2022/01/12 06:16:57;;;;;;;22.65;10.63;;;;;;;-3.68;100.00;101375.84;4990334;28;20053;-61
2022/01/12 06:19:23;;;;;;;22.17;10.95;;;;;;;-3.87;100.00;101365.66;4961099;28;20076;-61
2022/01/12 06:21:48;;;;;;;28.98;15.52;;;;;;;-3.99;100.00;101363.84;4978195;28;21181;-59
2022/01/12 06:24:14;;;;;;;35.83;15.55;;;;;;;-3.83;100.00;101367.16;4980149;28;20120;-59
2022/01/12 06:26:40;;;;;;;26.23;11.43;;;;;;;-3.74;100.00;101363.13;4978951;28;20118;-59
2022/01/12 06:31:42;;;;;;;28.58;11.13;;;;;;;-3.61;100.00;101387.63;4980108;28;20547;-59
2022/01/12 06:34:07;;;;;;;34.55;12.40;;;;;;;-3.78;100.00;101395.69;4985625;28;20038;-60
2022/01/12 06:36:33;;;;;;;29.33;12.27;;;;;;;-3.80;100.00;101403.66;4974575;28;20085;-60
2022/01/12 06:38:58;;;;;;;21.77;10.02;;;;;;;-3.72;100.00;101422.38;4984931;28;20037;-60
2022/01/12 06:41:24;;;;;;;26.13;11.52;;;;;;;-3.61;100.00;101433.97;4982993;28;20328;-59
2022/01/12 06:43:49;;;;;;;29.88;11.88;;;;;;;-3.65;100.00;101433.28;4984829;28;20026;-60
2022/01/12 06:46:17;;;;;;;24.75;12.18;;;;;;;-3.65;100.00;101437.69;4977699;28;20652;-60
2022/01/12 06:48:43;;;;;;;23.48;10.55;;;;;;;-3.73;100.00;101435.56;4981157;28;20258;-60
2022/01/12 06:51:09;;;;;;;21.30;10.75;;;;;;;-3.69;100.00;101430.03;4980259;28;20081;-60
2022/01/12 06:53:35;;;;;;;24.52;10.02;;;;;;;-3.62;100.00;101441.00;4945398;28;20401;-62
2022/01/12 06:56:00;;;;;;;23.17;11.30;;;;;;;-3.77;100.00;101445.41;4967528;28;20137;-60
2022/01/12 06:58:26;;;;;;;22.88;9.98;;;;;;;-3.64;100.00;101439.38;4965340;28;20113;-62
2022/01/12 07:00:51;;;;;;;20.63;9.93;;;;;;;-3.70;100.00;101440.59;4965505;28;20150;-59
2022/01/12 07:03:29;;;;;;;20.63;9.18;;;;;;;-3.65;100.00;101442.94;4963999;28;20027;-62
2022/01/12 07:05:54;;;;;;;21.48;9.35;;;;;;;-3.71;100.00;101439.78;4964284;28;20050;-59
2022/01/12 07:08:19;;;;;;;26.65;13.73;;;;;;;-3.63;100.00;101443.69;4961041;28;20034;-62
2022/01/12 07:10:45;;;;;;;27.98;14.07;;;;;;;-3.58;100.00;101454.72;4959695;28;20070;-59
2022/01/12 07:13:11;;;;;;;24.83;10.52;;;;;;;-3.59;100.00;101447.81;4963206;28;20039;-61
2022/01/12 07:15:38;;;;;;;27.70;11.40;;;;;;;-3.62;100.00;101447.97;4966795;28;20149;-60
2022/01/12 07:18:04;;;;;;;27.95;13.57;;;;;;;-3.45;100.00;101446.94;4965471;28;20184;-65
2022/01/12 07:20:29;;;;;;;32.70;12.68;;;;;;;-3.47;100.00;101447.00;4961269;28;20074;-64
2022/01/12 07:22:55;;;;;;;22.73;12.45;;;;;;;-3.56;100.00;101443.22;4967510;28;20029;-61
2022/01/12 07:25:21;;;;;;;26.70;12.50;;;;;;;-3.48;100.00;101447.97;4969628;28;20061;-60
2022/01/12 07:27:46;;;;;;;29.02;12.10;;;;;;;-3.41;100.00;101445.81;4967981;28;20141;-61
2022/01/12 07:30:12;;;;;;;30.80;12.85;;;;;;;-3.49;100.00;101431.41;4967054;28;20523;-61
2022/01/12 07:32:37;;;;;;;27.40;11.35;;;;;;;-3.43;100.00;101452.91;4982081;28;20161;-61
2022/01/12 07:35:04;;;;;;;32.53;13.10;;;;;;;-3.45;100.00;101460.88;4988803;28;20034;-61
2022/01/12 07:37:29;;;;;;;23.98;11.32;;;;;;;-3.26;100.00;101460.56;4989605;28;20026;-61
2022/01/12 07:39:55;;;;;;;22.67;10.93;;;;;;;-3.36;100.00;101468.16;4987727;28;20613;-60
2022/01/12 07:42:20;;;;;;;24.50;11.07;;;;;;;-3.38;100.00;101459.53;4985781;28;20049;-60
2022/01/12 07:44:46;;;;;;;22.05;10.18;;;;;;;-3.34;100.00;101449.72;4985424;28;20022;-61
2022/01/12 07:47:11;;;;;;;20.55;9.45;;;;;;;-3.39;100.00;101455.25;4983466;28;20058;-60
2022/01/12 07:49:36;;;;;;;22.52;9.77;;;;;;;-3.44;100.00;101456.47;4986033;28;20027;-60
2022/01/12 07:52:06;;;;;;;19.55;9.65;;;;;;;-3.38;100.00;101467.41;4986940;28;20046;-61
2022/01/12 07:54:31;;;;;;;22.52;10.82;;;;;;;-3.38;100.00;101477.91;4992105;28;20041;-61
2022/01/12 07:56:57;;;;;;;21.83;9.93;;;;;;;-3.09;100.00;101488.34;4984256;28;20054;-60
2022/01/12 07:59:22;;;;;;;19.23;10.10;;;;;;;-3.30;100.00;101480.88;5001013;28;20030;-60
2022/01/12 08:01:47;;;;;;;21.10;10.73;;;;;;;-3.26;100.00;101482.38;4998596;28;20038;-61
2022/01/12 08:04:13;;;;;;;23.83;11.20;;;;;;;-3.40;100.00;101494.66;4991206;28;20046;-61
2022/01/12 08:06:38;;;;;;;25.30;12.05;;;;;;;-3.29;100.00;101498.31;4987216;28;20515;-60
2022/01/12 08:09:07;;;;;;;22.65;10.43;;;;;;;-3.62;100.00;101485.56;4980989;28;20796;-60
2022/01/12 08:11:33;;;;;;;25.60;12.18;;;;;;;-3.45;100.00;101487.09;4983511;28;20495;-60
2022/01/12 08:13:58;;;;;;;30.25;12.65;;;;;;;-3.33;100.00;101485.47;4987842;28;20076;-61
2022/01/12 08:16:24;;;;;;;22.02;11.25;;;;;;;-3.16;100.00;101497.53;4974341;28;20152;-62
2022/01/12 08:18:49;;;;;;;31.10;13.88;;;;;;;-3.09;100.00;101514.56;4967438;28;20041;-61
2022/01/12 08:21:15;;;;;;;27.05;13.15;;;;;;;-3.03;100.00;101509.75;4969588;28;20162;-61
2022/01/12 08:23:40;;;;;;;25.35;12.48;;;;;;;-2.94;100.00;101513.56;4967143;28;20041;-59
2022/01/12 08:26:06;;;;;;;22.42;10.82;;;;;;;-3.13;100.00;101527.03;4961726;28;20053;-59
2022/01/12 08:28:31;;;;;;;31.02;13.60;;;;;;;-2.85;100.00;101525.25;4983370;28;20096;-59
2022/01/12 08:30:57;;;;;;;28.95;13.20;;;;;;;-2.77;100.00;101519.50;4979416;28;20055;-60
2022/01/12 08:33:22;;;;;;;28.23;13.43;;;;;;;-2.67;100.00;101529.31;4966459;28;20465;-59
2022/01/12 08:35:48;;;;;;;24.85;12.32;;;;;;;-2.74;100.00;101548.19;4965798;28;20050;-60
2022/01/12 08:38:13;;;;;;;30.23;12.95;;;;;;;-2.63;100.00;101541.28;4968337;28;20098;-60
2022/01/12 08:40:39;;;;;;;29.27;12.68;;;;;;;-2.66;100.00;101535.41;4972629;28;20046;-59
2022/01/12 08:43:05;;;;;;;25.73;12.15;;;;;;;-2.67;100.00;101536.31;4992725;28;20038;-59
2022/01/12 08:45:30;;;;;;;20.67;10.80;;;;;;;-2.74;100.00;101535.06;4979231;28;20054;-59
2022/01/12 08:47:56;;;;;;;25.15;11.38;;;;;;;-2.45;100.00;101541.84;4973962;28;20321;-60
2022/01/12 08:50:22;;;;;;;27.35;12.13;;;;;;;-2.16;100.00;101544.31;4974523;28;20050;-59
2022/01/12 08:52:47;;;;;;;31.52;13.05;;;;;;;-1.90;100.00;101552.22;4978682;28;20039;-60
2022/01/12 08:55:17;;;;;;;26.27;12.80;;;;;;;-2.03;100.00;101552.22;4994095;28;20092;-59
2022/01/12 08:57:43;;;;;;;30.95;13.70;;;;;;;-1.97;100.00;101550.03;4974579;28;20030;-59
2022/01/12 09:00:09;;;;;;;25.58;12.88;;;;;;;-1.90;100.00;101562.75;4984240;28;20045;-60
2022/01/12 09:02:35;;;;;;;27.00;13.18;;;;;;;-1.71;100.00;101567.59;4987866;28;20488;-60
2022/01/12 09:05:00;;;;;;;28.98;12.50;;;;;;;-1.73;99.19;101565.06;4981558;28;20062;-61
2022/01/12 09:07:26;;;;;;;23.92;12.30;;;;;;;-1.75;99.57;101553.78;4985858;28;20108;-61
2022/01/12 09:09:52;;;;;;;27.92;12.68;;;;;;;-1.50;98.12;101570.50;4996948;28;20022;-60
2022/01/12 09:12:18;;;;;;;27.08;12.98;;;;;;;-1.59;96.16;101572.84;4969099;28;20034;-61
2022/01/12 09:14:44;;;;;;;32.40;13.88;;;;;;;-1.56;98.74;101574.41;4963701;28;20066;-60
2022/01/12 09:17:16;;;;;;;21.85;11.43;;;;;;;-1.42;98.15;101573.44;4984697;28;20812;-60
2022/01/12 09:19:41;;;;;;;23.80;12.20;;;;;;;-1.16;99.24;101590.03;4985266;28;20120;-60
2022/01/12 09:22:07;;;;;;;24.42;11.85;;;;;;;-0.72;99.35;101584.22;4986690;28;20428;-60
2022/01/12 09:24:32;;;;;;;25.70;12.13;;;;;;;-0.56;95.94;101591.00;4982951;28;20054;-60
2022/01/12 09:26:57;;;;;;;23.77;12.32;;;;;;;-0.66;90.67;101596.09;4985839;28;20047;-61
2022/01/12 09:29:23;;;;;;;24.85;12.50;;;;;;;-0.80;91.75;101602.38;4990613;28;20041;-60
2022/01/12 09:31:49;;;;;;;24.55;12.15;;;;;;;-1.00;93.28;101606.44;4988590;28;20042;-59
2022/01/12 09:34:14;;;;;;;26.80;13.00;;;;;;;-0.75;93.49;101616.06;4971614;28;20037;-59
2022/01/12 09:36:40;;;;;;;23.20;13.45;;;;;;;-0.10;90.55;101614.81;4980060;28;20503;-59
2022/01/12 09:39:06;;;;;;;28.35;13.30;;;;;;;-0.10;89.48;101616.56;4988345;28;20505;-60
2022/01/12 09:41:32;;;;;;;24.15;12.45;;;;;;;-0.22;91.35;101613.06;4987804;28;20042;-59
2022/01/12 09:43:58;;;;;;;24.02;12.65;;;;;;;-0.06;92.23;101618.03;4984798;28;20034;-59
2022/01/12 09:46:24;;;;;;;23.27;12.77;;;;;;;0.13;91.39;101618.34;4979686;28;20054;-59
2022/01/12 09:48:49;;;;;;;25.20;13.05;;;;;;;-0.22;94.42;101613.91;4986443;28;20700;-59
2022/01/12 09:51:14;;;;;;;22.50;13.63;;;;;;;-0.17;93.12;101620.66;4986152;28;20088;-59
2022/01/12 09:53:41;;;;;;;24.83;13.40;;;;;;;-0.19;91.29;101618.09;4982735;28;20026;-61
2022/01/12 09:56:28;;;;;;;25.85;13.70;;;;;;;-0.42;90.99;101617.19;4979550;28;20030;-59
2022/01/12 09:58:55;;;;;;;25.40;12.82;;;;;;;-0.32;93.65;101623.47;4981015;28;20029;-62
2022/01/12 10:01:28;;;;;;;24.65;13.15;;;;;;;-0.03;93.96;101609.88;4984647;28;20037;-61
2022/01/12 10:04:04;;;;;;;25.70;13.57;;;;;;;0.31;93.00;101607.34;4991778;28;20093;-60
2022/01/12 10:06:45;;;;;;;25.35;13.48;;;;;;;0.31;89.19;101597.63;4982714;28;20038;-61
2022/01/12 10:09:12;;;;;;;28.40;14.15;;;;;;;0.59;90.23;101598.97;4988471;28;20088;-61
2022/01/12 10:11:50;;;;;;;29.25;14.35;;;;;;;0.95;89.01;101597.03;4986103;28;20066;-60
2022/01/12 10:14:16;;;;;;;27.40;13.95;;;;;;;0.82;90.40;101593.66;4984677;28;20041;-59
2022/01/12 10:16:52;;;;;;;27.80;12.60;;;;;;;1.06;89.54;101602.28;4970693;28;20034;-60
2022/01/12 10:19:28;;;;;;;29.85;13.63;;;;;;;0.49;90.21;101605.91;4984865;28;20054;-60
2022/01/12 10:21:54;;;;;;;30.40;14.40;;;;;;;0.68;91.74;101596.59;4975367;28;20046;-60
2022/01/12 10:24:20;;;;;;;22.63;12.77;;;;;;;0.71;90.25;101591.06;4983934;28;20105;-60
2022/01/12 10:26:46;;;;;;;27.10;13.30;;;;;;;0.91;89.99;101587.66;4984714;28;20627;-60
2022/01/12 10:29:13;;;;;;;23.98;11.93;;;;;;;0.56;90.91;101593.09;4987072;28;20034;-61
2022/01/12 10:31:52;;;;;;;23.90;12.25;;;;;;;0.56;90.61;101593.94;4982740;28;20636;-60
2022/01/12 10:34:19;;;;;;;22.25;11.85;;;;;;;1.05;92.35;101595.34;4984318;28;20594;-60
2022/01/12 10:36:45;;;;;;;20.98;12.18;;;;;;;1.07;90.50;101596.06;4983342;28;20239;-60
2022/01/12 10:39:12;;;;;;;21.63;11.18;;;;;;;1.33;88.73;101582.53;4979669;28;20492;-60
2022/01/12 10:41:58;;;;;;;22.65;11.40;;;;;;;1.22;87.40;101579.91;4992641;28;20214;-60
2022/01/12 10:44:31;;;;;;;19.30;10.50;;;;;;;1.06;89.52;101589.09;4995768;28;20026;-60
2022/01/12 10:47:05;;;;;;;21.38;11.55;;;;;;;1.02;90.54;101597.38;4975614;28;20074;-60
2022/01/12 10:49:33;;;;;;;21.40;11.02;;;;;;;0.77;90.60;101590.56;4980576;28;20034;-60
2022/01/12 10:51:58;;;;;;;19.67;10.75;;;;;;;0.41;90.51;101579.28;4961260;28;20142;-60
2022/01/12 10:54:24;;;;;;;21.27;11.93;;;;;;;0.16;92.12;101575.91;4960061;28;20798;-60
2022/01/12 10:56:49;;;;;;;18.92;10.98;;;;;;;0.23;92.87;101580.72;4979174;28;20050;-60
2022/01/12 10:59:21;;;;;;;21.08;11.20;;;;;;;0.14;92.80;101572.53;4985181;28;20836;-60
2022/01/12 11:01:47;;;;;;;25.58;13.57;;;;;;;0.53;93.66;101569.59;4971684;28;20047;-60
2022/01/12 11:04:12;;;;;;;28.23;12.93;;;;;;;0.68;93.95;101568.38;4971656;28;20066;-60
2022/01/12 11:06:37;;;;;;;22.88;12.73;;;;;;;0.52;93.14;101568.72;4965733;28;20678;-60
2022/01/12 11:09:04;;;;;;;22.50;12.70;;;;;;;0.58;93.96;101564.78;4963606;28;20031;-60
2022/01/12 11:11:29;;;;;;;20.52;11.85;;;;;;;0.80;93.04;101564.78;4982545;28;20099;-60
2022/01/12 11:13:57;;;;;;;25.13;13.25;;;;;;;0.92;92.82;101568.22;4985016;28;20480;-60
2022/01/12 11:16:23;;;;;;;24.05;12.93;;;;;;;1.10;93.53;101571.22;4990702;28;20508;-60
2022/01/12 11:18:49;;;;;;;25.98;11.82;;;;;;;1.10;93.18;101570.34;4989624;28;20141;-60
2022/01/12 11:21:20;;;;;;;18.85;11.48;;;;;;;0.66;93.79;101572.09;4985218;28;20054;-60
2022/01/12 11:23:46;;;;;;;20.83;11.77;;;;;;;0.86;93.52;101571.34;4983625;28;20022;-61
2022/01/12 11:26:17;;;;;;;22.85;12.57;;;;;;;0.82;93.76;101564.63;4985695;28;20166;-59
2022/01/12 11:28:42;;;;;;;21.17;12.07;;;;;;;0.89;93.20;101557.91;4985638;28;20428;-60
2022/01/12 11:31:08;;;;;;;19.75;11.90;;;;;;;1.02;91.66;101557.75;4993487;28;20046;-60
2022/01/12 11:33:34;;;;;;;20.13;12.00;;;;;;;0.69;92.65;101562.13;4990377;28;20037;-60
2022/01/12 11:36:04;;;;;;;28.00;13.25;;;;;;;0.84;93.54;101560.06;4980259;28;20050;-60
2022/01/12 11:38:31;;;;;;;27.95;12.57;;;;;;;0.86;93.24;101566.06;4991530;28;20344;-61
2022/01/12 11:41:07;;;;;;;23.00;12.82;;;;;;;1.04;93.28;101555.84;4990256;28;20531;-60
2022/01/12 11:43:33;;;;;;;25.65;14.32;;;;;;;1.02;92.93;101550.69;4993650;28;20022;-59
2022/01/12 11:46:06;;;;;;;39.53;18.17;;;;;;;0.73;93.10;101552.19;4979643;28;20336;-60
2022/01/12 11:48:58;;;;;;;27.83;14.60;;;;;;;0.77;91.62;101550.97;4995857;28;20440;-60
2022/01/12 11:51:33;;;;;;;27.40;13.82;;;;;;;0.64;92.92;101546.66;4991360;28;20038;-60
2022/01/12 11:54:01;;;;;;;26.65;14.75;;;;;;;0.67;93.80;101547.38;4978815;28;20481;-61
2022/01/12 11:56:26;;;;;;;25.02;13.52;;;;;;;0.97;94.15;101542.28;4991608;28;20386;-62
2022/01/12 11:58:53;;;;;;;28.38;15.23;;;;;;;0.97;93.27;101549.38;4983166;28;20037;-60
2022/01/12 12:01:18;;;;;;;30.63;14.90;;;;;;;1.16;93.75;101559.28;4984211;28;20042;-60
2022/01/12 12:03:55;;;;;;;32.03;15.13;;;;;;;1.23;93.47;101557.84;4998121;28;20096;-63
2022/01/12 12:06:21;;;;;;;43.70;20.00;;;;;;;1.21;93.14;101562.41;4985792;28;20077;-60
2022/01/12 12:09:04;;;;;;;108.00;40.03;;;;;;;1.13;93.37;101556.91;4990111;28;20031;-60
2022/01/12 12:11:30;;;;;;;57.63;23.70;;;;;;;1.18;92.52;101554.72;4986973;28;20037;-61
2022/01/12 12:14:01;;;;;;;225.32;77.07;;;;;;;1.22;93.28;101558.78;4990212;28;20034;-61
2022/01/12 12:16:28;;;;;;;78.88;30.15;;;;;;;1.00;94.71;101559.66;4984287;28;20038;-61
2022/01/12 12:18:53;;;;;;;140.68;51.35;;;;;;;0.97;94.91;101560.75;4989252;28;20116;-60
2022/01/12 12:21:18;;;;;;;64.55;26.15;;;;;;;0.99;96.37;101556.19;4966246;28;20042;-60
2022/01/12 12:23:44;;;;;;;56.53;23.42;;;;;;;1.19;94.89;101553.75;4992939;28;20030;-60
2022/01/12 12:26:09;;;;;;;119.75;47.70;;;;;;;1.17;94.13;101548.59;4985187;28;20042;-61
2022/01/12 12:28:35;;;;;;;37.67;18.95;;;;;;;0.97;92.85;101560.75;4985359;28;20030;-60
2022/01/12 12:31:00;;;;;;;29.65;15.80;;;;;;;0.76;94.72;101549.28;4989645;28;20050;-60